sensor_id;sensor_type;location;lat;lon;timestamp;pressure;altitude;pressure_sealevel;temperature;humidity
82256;BME280;74246;42.044;-91.642;2023-11-19T00:00:12;98563.34;;;16.43;35.40
82256;BME280;74246;42.044;-91.642;2023-11-19T00:00:45;98563.31;;;16.38;35.27
82256;BME280;74246;42.044;-91.642;2023-11-19T00:01:26;98554.88;;;16.25;35.00
82256;BME280;74246;42.044;-91.642;2023-11-19T00:01:59;98560.94;;;16.36;34.57
82256;BME280;74246;42.044;-91.642;2023-11-19T00:02:32;98563.53;;;15.90;33.72
82256;BME280;74246;42.044;-91.642;2023-11-19T00:03:04;98564.09;;;16.13;35.55
82256;BME280;74246;42.044;-91.642;2023-11-19T00:03:38;98571.16;;;15.97;35.18
82256;BME280;74246;42.044;-91.642;2023-11-19T00:04:10;98564.63;;;16.20;36.58
82256;BME280;74246;42.044;-91.642;2023-11-19T00:04:43;98571.66;;;15.89;34.24
82256;BME280;74246;42.044;-91.642;2023-11-19T00:05:16;98569.00;;;15.78;34.99
82256;BME280;74246;42.044;-91.642;2023-11-19T00:05:49;98564.88;;;16.03;35.86
82256;BME280;74246;42.044;-91.642;2023-11-19T00:06:22;98560.94;;;16.16;36.11
82256;BME280;74246;42.044;-91.642;2023-11-19T00:06:55;98562.50;;;16.17;36.72
82256;BME280;74246;42.044;-91.642;2023-11-19T00:07:29;98558.84;;;16.28;36.48
82256;BME280;74246;42.044;-91.642;2023-11-19T00:08:06;98557.28;;;16.37;36.78
82256;BME280;74246;42.044;-91.642;2023-11-19T00:08:39;98559.66;;;16.39;36.04
82256;BME280;74246;42.044;-91.642;2023-11-19T00:09:12;98566.50;;;16.45;35.78
82256;BME280;74246;42.044;-91.642;2023-11-19T00:09:45;98561.50;;;16.33;35.06
82256;BME280;74246;42.044;-91.642;2023-11-19T00:10:17;98560.97;;;16.47;36.60
82256;BME280;74246;42.044;-91.642;2023-11-19T00:10:53;98555.41;;;16.12;35.39
82256;BME280;74246;42.044;-91.642;2023-11-19T00:11:26;98567.03;;;16.37;36.22
82256;BME280;74246;42.044;-91.642;2023-11-19T00:11:58;98563.34;;;16.48;36.53
82256;BME280;74246;42.044;-91.642;2023-11-19T00:12:32;98564.66;;;16.66;36.40
82256;BME280;74246;42.044;-91.642;2023-11-19T00:13:05;98563.31;;;16.74;34.72
82256;BME280;74246;42.044;-91.642;2023-11-19T00:13:39;98565.97;;;16.38;35.07
82256;BME280;74246;42.044;-91.642;2023-11-19T00:14:11;98557.00;;;16.49;35.44
82256;BME280;74246;42.044;-91.642;2023-11-19T00:14:44;98510.91;;;16.00;35.44
82256;BME280;74246;42.044;-91.642;2023-11-19T00:15:17;98568.59;;;16.43;35.73
82256;BME280;74246;42.044;-91.642;2023-11-19T00:15:51;98566.22;;;16.47;34.88
82256;BME280;74246;42.044;-91.642;2023-11-19T00:16:24;98540.19;;;16.30;33.48
82256;BME280;74246;42.044;-91.642;2023-11-19T00:16:56;98564.38;;;16.52;35.54
82256;BME280;74246;42.044;-91.642;2023-11-19T00:17:29;98568.06;;;16.67;36.92
82256;BME280;74246;42.044;-91.642;2023-11-19T00:18:02;98563.84;;;16.71;36.17
82256;BME280;74246;42.044;-91.642;2023-11-19T00:18:36;98566.22;;;16.82;36.46
82256;BME280;74246;42.044;-91.642;2023-11-19T00:19:12;98570.19;;;16.85;37.18
82256;BME280;74246;42.044;-91.642;2023-11-19T00:19:45;98568.63;;;16.89;35.32
82256;BME280;74246;42.044;-91.642;2023-11-19T00:20:19;98534.63;;;16.47;33.71
82256;BME280;74246;42.044;-91.642;2023-11-19T00:20:51;98567.03;;;16.62;33.06
82256;BME280;74246;42.044;-91.642;2023-11-19T00:21:24;98566.50;;;16.60;34.30
82256;BME280;74246;42.044;-91.642;2023-11-19T00:22:01;98571.50;;;16.41;34.98
82256;BME280;74246;42.044;-91.642;2023-11-19T00:22:35;98566.25;;;16.52;35.72
82256;BME280;74246;42.044;-91.642;2023-11-19T00:23:07;98560.94;;;16.11;33.85
82256;BME280;74246;42.044;-91.642;2023-11-19T00:23:40;98571.75;;;16.35;36.24
82256;BME280;74246;42.044;-91.642;2023-11-19T00:24:13;98570.41;;;16.27;36.07
82256;BME280;74246;42.044;-91.642;2023-11-19T00:24:48;98572.78;;;16.18;34.65
82256;BME280;74246;42.044;-91.642;2023-11-19T00:25:22;98530.94;;;16.17;36.68
82256;BME280;74246;42.044;-91.642;2023-11-19T00:25:55;98575.44;;;16.39;36.16
82256;BME280;74246;42.044;-91.642;2023-11-19T00:26:27;98574.66;;;16.49;36.86
82256;BME280;74246;42.044;-91.642;2023-11-19T00:27:00;98571.22;;;16.33;34.02
82256;BME280;74246;42.044;-91.642;2023-11-19T00:27:33;98596.22;;;16.30;35.39
82256;BME280;74246;42.044;-91.642;2023-11-19T00:28:05;98571.75;;;16.24;37.24
82256;BME280;74246;42.044;-91.642;2023-11-19T00:28:38;98579.63;;;16.14;34.44
82256;BME280;74246;42.044;-91.642;2023-11-19T00:29:11;98569.06;;;16.04;35.29
82256;BME280;74246;42.044;-91.642;2023-11-19T00:29:45;98574.88;;;16.01;34.28
82256;BME280;74246;42.044;-91.642;2023-11-19T00:30:18;98578.03;;;16.18;36.90
82256;BME280;74246;42.044;-91.642;2023-11-19T00:30:51;98579.88;;;16.18;35.86
82256;BME280;74246;42.044;-91.642;2023-11-19T00:31:24;98573.31;;;16.10;35.83
82256;BME280;74246;42.044;-91.642;2023-11-19T00:32:00;98302.59;;;14.38;35.88
82256;BME280;74246;42.044;-91.642;2023-11-19T00:32:33;98510.56;;;15.56;36.82
82256;BME280;74246;42.044;-91.642;2023-11-19T00:33:05;98583.28;;;16.03;35.08
82256;BME280;74246;42.044;-91.642;2023-11-19T00:33:38;98576.19;;;16.14;36.01
82256;BME280;74246;42.044;-91.642;2023-11-19T00:34:21;98583.25;;;15.98;37.00
82256;BME280;74246;42.044;-91.642;2023-11-19T00:34:54;98573.53;;;15.98;36.70
82256;BME280;74246;42.044;-91.642;2023-11-19T00:35:27;98581.19;;;16.10;35.56
82256;BME280;74246;42.044;-91.642;2023-11-19T00:36:00;98586.13;;;15.91;37.44
82256;BME280;74246;42.044;-91.642;2023-11-19T00:36:32;98584.56;;;16.00;36.10
82256;BME280;74246;42.044;-91.642;2023-11-19T00:37:05;98588.41;;;15.67;36.07
82256;BME280;74246;42.044;-91.642;2023-11-19T00:37:39;98578.09;;;15.55;36.72
82256;BME280;74246;42.044;-91.642;2023-11-19T00:38:12;98585.69;;;15.52;36.01
82256;BME280;74246;42.044;-91.642;2023-11-19T00:38:44;98592.25;;;15.49;36.94
82256;BME280;74246;42.044;-91.642;2023-11-19T00:39:17;98588.00;;;15.38;35.47
82256;BME280;74246;42.044;-91.642;2023-11-19T00:39:50;98581.25;;;15.52;36.95
82256;BME280;74246;42.044;-91.642;2023-11-19T00:40:24;98588.84;;;15.01;36.86
82256;BME280;74246;42.044;-91.642;2023-11-19T00:40:56;98594.94;;;15.12;37.12
82256;BME280;74246;42.044;-91.642;2023-11-19T00:41:29;98555.38;;;14.86;37.61
82256;BME280;74246;42.044;-91.642;2023-11-19T00:42:02;98588.25;;;15.36;38.00
82256;BME280;74246;42.044;-91.642;2023-11-19T00:42:34;98590.84;;;15.31;36.57
82256;BME280;74246;42.044;-91.642;2023-11-19T00:43:07;98587.19;;;15.37;36.02
82256;BME280;74246;42.044;-91.642;2023-11-19T00:43:40;98593.44;;;15.26;36.65
82256;BME280;74246;42.044;-91.642;2023-11-19T00:44:12;98593.31;;;15.00;36.13
82256;BME280;74246;42.044;-91.642;2023-11-19T00:44:45;98597.91;;;14.83;35.60
82256;BME280;74246;42.044;-91.642;2023-11-19T00:45:20;98562.91;;;14.72;36.73
82256;BME280;74246;42.044;-91.642;2023-11-19T00:45:53;98584.44;;;15.12;36.79
82256;BME280;74246;42.044;-91.642;2023-11-19T00:46:25;98590.34;;;15.39;37.08
82256;BME280;74246;42.044;-91.642;2023-11-19T00:46:58;98501.75;;;14.71;37.68
82256;BME280;74246;42.044;-91.642;2023-11-19T00:47:32;98593.25;;;15.38;35.83
82256;BME280;74246;42.044;-91.642;2023-11-19T00:48:05;98596.41;;;15.35;35.65
82256;BME280;74246;42.044;-91.642;2023-11-19T00:48:37;98589.38;;;15.51;37.57
82256;BME280;74246;42.044;-91.642;2023-11-19T00:49:10;98592.84;;;15.61;36.01
82256;BME280;74246;42.044;-91.642;2023-11-19T00:49:44;98594.19;;;15.69;35.79
82256;BME280;74246;42.044;-91.642;2023-11-19T00:50:16;98585.84;;;15.88;37.32
82256;BME280;74246;42.044;-91.642;2023-11-19T00:50:49;98585.72;;;15.57;35.34
82256;BME280;74246;42.044;-91.642;2023-11-19T00:51:22;98591.97;;;15.45;35.24
82256;BME280;74246;42.044;-91.642;2023-11-19T00:51:54;98587.03;;;15.54;35.86
82256;BME280;74246;42.044;-91.642;2023-11-19T00:52:27;98587.94;;;15.27;36.65
82256;BME280;74246;42.044;-91.642;2023-11-19T00:53:00;98594.63;;;15.51;37.35
82256;BME280;74246;42.044;-91.642;2023-11-19T00:53:33;98595.16;;;15.05;36.40
82256;BME280;74246;42.044;-91.642;2023-11-19T00:54:06;98601.75;;;15.07;35.54
82256;BME280;74246;42.044;-91.642;2023-11-19T00:54:38;98598.41;;;15.22;37.21
82256;BME280;74246;42.044;-91.642;2023-11-19T00:55:11;98589.75;;;15.22;36.34
82256;BME280;74246;42.044;-91.642;2023-11-19T00:55:43;98595.63;;;15.34;37.54
82256;BME280;74246;42.044;-91.642;2023-11-19T00:56:18;98598.09;;;14.76;37.01
82256;BME280;74246;42.044;-91.642;2023-11-19T00:56:52;98589.06;;;14.62;38.87
82256;BME280;74246;42.044;-91.642;2023-11-19T00:57:25;98605.22;;;14.81;38.80
82256;BME280;74246;42.044;-91.642;2023-11-19T00:57:59;98584.75;;;14.83;37.85
82256;BME280;74246;42.044;-91.642;2023-11-19T00:58:31;98590.56;;;14.85;36.17
82256;BME280;74246;42.044;-91.642;2023-11-19T00:59:04;98600.72;;;15.14;36.30
82256;BME280;74246;42.044;-91.642;2023-11-19T00:59:37;98592.56;;;15.10;36.71
82256;BME280;74246;42.044;-91.642;2023-11-19T01:00:10;98604.13;;;15.09;37.32
82256;BME280;74246;42.044;-91.642;2023-11-19T01:00:53;98597.88;;;15.20;36.76
82256;BME280;74246;42.044;-91.642;2023-11-19T01:01:25;98601.00;;;15.17;37.01
82256;BME280;74246;42.044;-91.642;2023-11-19T01:01:58;98596.16;;;15.36;36.51
82256;BME280;74246;42.044;-91.642;2023-11-19T01:02:35;98591.56;;;15.21;37.83
82256;BME280;74246;42.044;-91.642;2023-11-19T01:03:08;98599.16;;;15.18;37.28
82256;BME280;74246;42.044;-91.642;2023-11-19T01:03:41;98603.22;;;15.36;37.86
82256;BME280;74246;42.044;-91.642;2023-11-19T01:04:14;98600.31;;;15.32;37.14
82256;BME280;74246;42.044;-91.642;2023-11-19T01:04:47;98558.13;;;15.06;36.33
82256;BME280;74246;42.044;-91.642;2023-11-19T01:05:20;98594.19;;;15.21;37.52
82256;BME280;74246;42.044;-91.642;2023-11-19T01:05:56;98576.97;;;14.93;37.06
82256;BME280;74246;42.044;-91.642;2023-11-19T01:06:31;98598.22;;;15.29;37.47
82256;BME280;74246;42.044;-91.642;2023-11-19T01:07:04;98578.28;;;14.96;35.94
82256;BME280;74246;42.044;-91.642;2023-11-19T01:07:38;98602.75;;;15.01;37.03
82256;BME280;74246;42.044;-91.642;2023-11-19T01:08:11;98603.69;;;14.85;37.84
82256;BME280;74246;42.044;-91.642;2023-11-19T01:08:44;98589.44;;;14.76;37.58
82256;BME280;74246;42.044;-91.642;2023-11-19T01:09:19;98602.69;;;14.91;38.09
82256;BME280;74246;42.044;-91.642;2023-11-19T01:09:52;98598.91;;;14.77;37.87
82256;BME280;74246;42.044;-91.642;2023-11-19T01:10:26;98593.97;;;14.85;37.52
82256;BME280;74246;42.044;-91.642;2023-11-19T01:10:58;98589.78;;;14.57;38.08
82256;BME280;74246;42.044;-91.642;2023-11-19T01:11:32;98595.38;;;14.61;38.60
82256;BME280;74246;42.044;-91.642;2023-11-19T01:12:05;98594.91;;;14.69;37.82
82256;BME280;74246;42.044;-91.642;2023-11-19T01:12:38;98597.97;;;14.93;39.30
82256;BME280;74246;42.044;-91.642;2023-11-19T01:13:10;98597.25;;;15.03;38.65
82256;BME280;74246;42.044;-91.642;2023-11-19T01:13:44;98584.19;;;14.76;38.05
82256;BME280;74246;42.044;-91.642;2023-11-19T01:14:17;98601.78;;;14.75;37.83
82256;BME280;74246;42.044;-91.642;2023-11-19T01:14:49;98596.47;;;15.02;39.10
82256;BME280;74246;42.044;-91.642;2023-11-19T01:15:22;98595.63;;;14.97;36.93
82256;BME280;74246;42.044;-91.642;2023-11-19T01:15:55;98597.25;;;15.03;38.00
82256;BME280;74246;42.044;-91.642;2023-11-19T01:16:28;98592.78;;;15.03;38.34
82256;BME280;74246;42.044;-91.642;2023-11-19T01:17:04;98595.41;;;14.98;38.08
82256;BME280;74246;42.044;-91.642;2023-11-19T01:17:37;98595.28;;;14.83;37.33
82256;BME280;74246;42.044;-91.642;2023-11-19T01:18:10;98594.94;;;14.74;37.54
82256;BME280;74246;42.044;-91.642;2023-11-19T01:18:43;98587.66;;;14.54;36.56
82256;BME280;74246;42.044;-91.642;2023-11-19T01:19:16;98590.78;;;14.51;37.31
82256;BME280;74246;42.044;-91.642;2023-11-19T01:19:48;98590.25;;;14.49;37.38
82256;BME280;74246;42.044;-91.642;2023-11-19T01:20:22;98584.09;;;14.38;37.85
82256;BME280;74246;42.044;-91.642;2023-11-19T01:20:56;98590.03;;;14.56;38.04
82256;BME280;74246;42.044;-91.642;2023-11-19T01:21:28;98590.19;;;14.44;39.27
82256;BME280;74246;42.044;-91.642;2023-11-19T01:22:01;98592.19;;;14.31;38.15
82256;BME280;74246;42.044;-91.642;2023-11-19T01:22:34;98585.50;;;14.46;38.14
82256;BME280;74246;42.044;-91.642;2023-11-19T01:23:07;98588.53;;;14.32;37.23
82256;BME280;74246;42.044;-91.642;2023-11-19T01:23:40;98585.50;;;14.46;39.41
82256;BME280;74246;42.044;-91.642;2023-11-19T01:24:15;98586.47;;;14.67;37.99
82256;BME280;74246;42.044;-91.642;2023-11-19T01:24:48;98583.06;;;14.66;38.12
82256;BME280;74246;42.044;-91.642;2023-11-19T01:25:20;98590.56;;;14.85;37.72
82256;BME280;74246;42.044;-91.642;2023-11-19T01:25:56;98588.47;;;14.87;38.53
82256;BME280;74246;42.044;-91.642;2023-11-19T01:26:29;98584.94;;;14.71;37.63
82256;BME280;74246;42.044;-91.642;2023-11-19T01:27:01;98545.56;;;14.39;38.18
82256;BME280;74246;42.044;-91.642;2023-11-19T01:27:34;98588.94;;;14.79;39.06
82256;BME280;74246;42.044;-91.642;2023-11-19T01:28:07;98590.41;;;14.64;36.96
82256;BME280;74246;42.044;-91.642;2023-11-19T01:28:40;98591.69;;;14.62;38.03
82256;BME280;74246;42.044;-91.642;2023-11-19T01:29:19;98576.63;;;14.52;37.93
82256;BME280;74246;42.044;-91.642;2023-11-19T01:29:52;98587.84;;;14.47;38.35
82256;BME280;74246;42.044;-91.642;2023-11-19T01:30:25;98595.00;;;14.52;39.04
82256;BME280;74246;42.044;-91.642;2023-11-19T01:30:58;98586.44;;;14.62;39.66
82256;BME280;74246;42.044;-91.642;2023-11-19T01:31:31;98589.97;;;14.78;37.44
82256;BME280;74246;42.044;-91.642;2023-11-19T01:32:06;98580.16;;;15.00;40.30
82256;BME280;74246;42.044;-91.642;2023-11-19T01:32:39;98587.50;;;14.61;36.81
82256;BME280;74246;42.044;-91.642;2023-11-19T01:33:15;98568.59;;;14.37;37.36
82256;BME280;74246;42.044;-91.642;2023-11-19T01:33:47;98590.19;;;14.71;37.91
82256;BME280;74246;42.044;-91.642;2023-11-19T01:34:20;98587.84;;;14.69;38.55
82256;BME280;74246;42.044;-91.642;2023-11-19T01:34:53;98588.69;;;14.53;38.46
82256;BME280;74246;42.044;-91.642;2023-11-19T01:35:26;98574.75;;;14.47;38.91
82256;BME280;74246;42.044;-91.642;2023-11-19T01:35:59;98588.41;;;14.77;38.23
82256;BME280;74246;42.044;-91.642;2023-11-19T01:36:31;98590.75;;;14.73;38.08
82256;BME280;74246;42.044;-91.642;2023-11-19T01:37:04;98578.47;;;14.51;38.84
82256;BME280;74246;42.044;-91.642;2023-11-19T01:37:37;98577.91;;;14.77;38.48
82256;BME280;74246;42.044;-91.642;2023-11-19T01:38:09;98576.59;;;14.79;38.64
82256;BME280;74246;42.044;-91.642;2023-11-19T01:38:42;98578.19;;;14.53;37.31
82256;BME280;74246;42.044;-91.642;2023-11-19T01:39:15;98583.66;;;14.74;38.13
82256;BME280;74246;42.044;-91.642;2023-11-19T01:39:52;98577.94;;;14.54;38.90
82256;BME280;74246;42.044;-91.642;2023-11-19T01:40:27;98577.66;;;14.51;38.19
82256;BME280;74246;42.044;-91.642;2023-11-19T01:41:00;98580.28;;;14.51;38.69
82256;BME280;74246;42.044;-91.642;2023-11-19T01:41:35;98561.31;;;14.44;39.70
82256;BME280;74246;42.044;-91.642;2023-11-19T01:42:08;98544.59;;;14.50;38.27
82256;BME280;74246;42.044;-91.642;2023-11-19T01:42:41;98581.34;;;14.82;38.87
82256;BME280;74246;42.044;-91.642;2023-11-19T01:43:34;98576.75;;;14.62;39.14
82256;BME280;74246;42.044;-91.642;2023-11-19T01:44:07;98583.13;;;14.71;40.10
82256;BME280;74246;42.044;-91.642;2023-11-19T01:44:40;98584.19;;;14.76;37.99
82256;BME280;74246;42.044;-91.642;2023-11-19T01:45:22;98571.06;;;14.76;38.17
82256;BME280;74246;42.044;-91.642;2023-11-19T01:46:01;98581.31;;;14.77;39.83
82256;BME280;74246;42.044;-91.642;2023-11-19T01:46:35;98586.47;;;14.67;37.51
82256;BME280;74246;42.044;-91.642;2023-11-19T01:47:09;98582.94;;;14.83;37.76
82256;BME280;74246;42.044;-91.642;2023-11-19T01:47:41;98585.34;;;14.90;39.76
82256;BME280;74246;42.044;-91.642;2023-11-19T01:48:14;98589.50;;;14.53;36.70
82256;BME280;74246;42.044;-91.642;2023-11-19T01:48:47;98585.91;;;14.60;39.86
82256;BME280;74246;42.044;-91.642;2023-11-19T01:49:20;98576.84;;;14.78;38.72
82256;BME280;74246;42.044;-91.642;2023-11-19T01:49:52;98578.69;;;14.77;39.77
82256;BME280;74246;42.044;-91.642;2023-11-19T01:50:25;98587.38;;;14.50;37.41
82256;BME280;74246;42.044;-91.642;2023-11-19T01:50:58;98551.69;;;14.22;37.32
82256;BME280;74246;42.044;-91.642;2023-11-19T01:51:34;98582.88;;;14.19;38.31
82256;BME280;74246;42.044;-91.642;2023-11-19T01:52:07;98585.75;;;14.17;39.09
82256;BME280;74246;42.044;-91.642;2023-11-19T01:52:40;98585.22;;;13.93;38.70
82256;BME280;74246;42.044;-91.642;2023-11-19T01:53:13;98593.03;;;13.88;39.50
82256;BME280;74246;42.044;-91.642;2023-11-19T01:53:45;98588.78;;;13.82;39.19
82256;BME280;74246;42.044;-91.642;2023-11-19T01:54:18;98579.88;;;13.83;39.32
82256;BME280;74246;42.044;-91.642;2023-11-19T01:54:53;98535.94;;;13.68;39.23
82256;BME280;74246;42.044;-91.642;2023-11-19T01:55:27;98591.00;;;14.17;38.30
82256;BME280;74246;42.044;-91.642;2023-11-19T01:56:04;98587.56;;;13.89;40.15
82256;BME280;74246;42.044;-91.642;2023-11-19T01:56:41;98592.03;;;13.67;39.21
82256;BME280;74246;42.044;-91.642;2023-11-19T01:57:14;98527.00;;;13.42;39.07
82256;BME280;74246;42.044;-91.642;2023-11-19T01:57:48;98591.03;;;13.95;38.97
82256;BME280;74246;42.044;-91.642;2023-11-19T01:58:21;98587.72;;;13.83;37.78
82256;BME280;74246;42.044;-91.642;2023-11-19T01:58:55;98590.72;;;13.91;38.53
82256;BME280;74246;42.044;-91.642;2023-11-19T01:59:29;98588.59;;;13.88;39.25
82256;BME280;74246;42.044;-91.642;2023-11-19T02:00:01;98585.28;;;13.98;38.63
82256;BME280;74246;42.044;-91.642;2023-11-19T02:00:35;98585.19;;;13.88;37.74
82256;BME280;74246;42.044;-91.642;2023-11-19T02:01:09;98558.50;;;13.69;40.08
82256;BME280;74246;42.044;-91.642;2023-11-19T02:01:43;98590.50;;;13.71;39.29
82256;BME280;74246;42.044;-91.642;2023-11-19T02:02:16;98535.72;;;13.30;39.79
82256;BME280;74246;42.044;-91.642;2023-11-19T02:02:52;98572.69;;;13.51;38.85
82256;BME280;74246;42.044;-91.642;2023-11-19T02:03:27;98539.28;;;13.41;39.93
82256;BME280;74246;42.044;-91.642;2023-11-19T02:04:01;98594.75;;;13.77;39.63
82256;BME280;74246;42.044;-91.642;2023-11-19T02:04:34;98589.84;;;14.08;39.93
82256;BME280;74246;42.044;-91.642;2023-11-19T02:05:08;98584.41;;;14.14;38.54
82256;BME280;74246;42.044;-91.642;2023-11-19T02:05:40;98586.41;;;13.80;38.04
82256;BME280;74246;42.044;-91.642;2023-11-19T02:06:13;98587.00;;;13.87;39.20
82256;BME280;74246;42.044;-91.642;2023-11-19T02:06:48;98591.31;;;13.99;39.58
82256;BME280;74246;42.044;-91.642;2023-11-19T02:07:24;98275.19;;;11.95;38.88
82256;BME280;74246;42.044;-91.642;2023-11-19T02:07:57;98588.69;;;13.99;39.23
82256;BME280;74246;42.044;-91.642;2023-11-19T02:08:30;98585.47;;;13.91;38.74
82256;BME280;74246;42.044;-91.642;2023-11-19T02:09:03;98315.72;;;11.81;37.66
82256;BME280;74246;42.044;-91.642;2023-11-19T02:09:43;98587.50;;;13.62;40.37
82256;BME280;74246;42.044;-91.642;2023-11-19T02:10:15;98595.75;;;13.49;41.25
82256;BME280;74246;42.044;-91.642;2023-11-19T02:10:49;98595.28;;;13.35;40.86
82256;BME280;74246;42.044;-91.642;2023-11-19T02:11:21;98588.53;;;13.39;41.24
82256;BME280;74246;42.044;-91.642;2023-11-19T02:11:55;98561.53;;;13.38;39.26
82256;BME280;74246;42.044;-91.642;2023-11-19T02:12:27;98593.06;;;13.66;39.32
82256;BME280;74246;42.044;-91.642;2023-11-19T02:13:06;98592.28;;;13.65;39.68
82256;BME280;74246;42.044;-91.642;2023-11-19T02:13:39;98564.00;;;13.45;39.26
82256;BME280;74246;42.044;-91.642;2023-11-19T02:14:13;98580.44;;;13.24;38.94
82256;BME280;74246;42.044;-91.642;2023-11-19T02:14:46;98595.47;;;13.50;39.16
82256;BME280;74246;42.044;-91.642;2023-11-19T02:15:18;98486.81;;;13.14;39.45
82256;BME280;74246;42.044;-91.642;2023-11-19T02:15:52;98596.91;;;13.80;40.16
82256;BME280;74246;42.044;-91.642;2023-11-19T02:16:25;98597.50;;;13.87;38.79
82256;BME280;74246;42.044;-91.642;2023-11-19T02:16:57;98600.84;;;14.05;41.06
82256;BME280;74246;42.044;-91.642;2023-11-19T02:17:31;98568.41;;;13.45;40.60
82256;BME280;74246;42.044;-91.642;2023-11-19T02:18:24;98599.53;;;13.58;40.42
82256;BME280;74246;42.044;-91.642;2023-11-19T02:19:00;98596.69;;;13.43;40.49
82256;BME280;74246;42.044;-91.642;2023-11-19T02:19:32;98591.81;;;13.51;40.66
82256;BME280;74246;42.044;-91.642;2023-11-19T02:20:06;98599.44;;;13.75;41.68
82256;BME280;74246;42.044;-91.642;2023-11-19T02:20:41;98605.06;;;13.62;39.93
82256;BME280;74246;42.044;-91.642;2023-11-19T02:21:14;98605.38;;;13.65;39.57
82256;BME280;74246;42.044;-91.642;2023-11-19T02:21:47;98600.47;;;13.52;40.17
82256;BME280;74246;42.044;-91.642;2023-11-19T02:22:20;98585.88;;;13.56;40.11
82256;BME280;74246;42.044;-91.642;2023-11-19T02:22:53;98599.75;;;13.79;39.50
82256;BME280;74246;42.044;-91.642;2023-11-19T02:23:27;98576.97;;;13.57;41.58
82256;BME280;74246;42.044;-91.642;2023-11-19T02:24:05;98600.97;;;13.71;39.50
82256;BME280;74246;42.044;-91.642;2023-11-19T02:24:40;98609.94;;;13.75;38.55
82256;BME280;74246;42.044;-91.642;2023-11-19T02:25:32;98607.13;;;13.82;39.65
82256;BME280;74246;42.044;-91.642;2023-11-19T02:27:10;98615.91;;;13.70;39.13
82256;BME280;74246;42.044;-91.642;2023-11-19T02:27:54;98597.06;;;13.51;38.88
82256;BME280;74246;42.044;-91.642;2023-11-19T02:28:28;98609.47;;;13.39;39.64
82256;BME280;74246;42.044;-91.642;2023-11-19T02:29:01;98616.28;;;13.23;39.05
82256;BME280;74246;42.044;-91.642;2023-11-19T02:29:39;98624.22;;;13.28;41.07
82256;BME280;74246;42.044;-91.642;2023-11-19T02:30:12;98616.47;;;13.16;40.76
82256;BME280;74246;42.044;-91.642;2023-11-19T02:30:49;98613.78;;;13.45;40.59
82256;BME280;74246;42.044;-91.642;2023-11-19T02:31:22;98617.56;;;13.54;40.04
82256;BME280;74246;42.044;-91.642;2023-11-19T02:31:55;98619.19;;;13.61;40.29
82256;BME280;74246;42.044;-91.642;2023-11-19T02:32:28;98624.28;;;13.50;41.06
82256;BME280;74246;42.044;-91.642;2023-11-19T02:33:03;98617.72;;;13.70;39.86
82256;BME280;74246;42.044;-91.642;2023-11-19T02:33:38;98625.78;;;13.85;40.47
82256;BME280;74246;42.044;-91.642;2023-11-19T02:34:11;98620.91;;;13.72;40.53
82256;BME280;74246;42.044;-91.642;2023-11-19T02:34:44;98626.97;;;13.55;38.66
82256;BME280;74246;42.044;-91.642;2023-11-19T02:35:17;98609.63;;;13.32;39.06
82256;BME280;74246;42.044;-91.642;2023-11-19T02:35:50;98629.41;;;13.23;40.41
82256;BME280;74246;42.044;-91.642;2023-11-19T02:36:23;98626.88;;;13.11;40.46
82256;BME280;74246;42.044;-91.642;2023-11-19T02:36:56;98614.00;;;13.27;40.15
82256;BME280;74246;42.044;-91.642;2023-11-19T02:37:28;98628.59;;;13.23;40.65
82256;BME280;74246;42.044;-91.642;2023-11-19T02:38:01;98622.88;;;13.43;41.39
82256;BME280;74246;42.044;-91.642;2023-11-19T02:38:36;98624.97;;;13.24;41.50
82256;BME280;74246;42.044;-91.642;2023-11-19T02:39:09;98630.94;;;13.02;40.41
82256;BME280;74246;42.044;-91.642;2023-11-19T02:39:44;98631.25;;;13.06;41.98
82256;BME280;74246;42.044;-91.642;2023-11-19T02:40:17;98642.91;;;13.15;40.95
82256;BME280;74246;42.044;-91.642;2023-11-19T02:40:49;98562.00;;;12.79;41.48
82256;BME280;74246;42.044;-91.642;2023-11-19T02:41:22;98631.56;;;13.09;41.00
82256;BME280;74246;42.044;-91.642;2023-11-19T02:41:55;98627.28;;;13.03;41.93
82256;BME280;74246;42.044;-91.642;2023-11-19T02:42:27;98628.75;;;13.16;40.49
82256;BME280;74246;42.044;-91.642;2023-11-19T02:43:00;98626.09;;;12.94;40.82
82256;BME280;74246;42.044;-91.642;2023-11-19T02:43:34;98337.84;;;11.27;39.71
82256;BME280;74246;42.044;-91.642;2023-11-19T02:44:07;98627.19;;;13.32;39.18
82256;BME280;74246;42.044;-91.642;2023-11-19T02:44:44;98628.78;;;13.33;40.10
82256;BME280;74246;42.044;-91.642;2023-11-19T02:45:16;98626.31;;;13.26;40.13
82256;BME280;74246;42.044;-91.642;2023-11-19T02:45:49;98623.22;;;13.12;39.07
82256;BME280;74246;42.044;-91.642;2023-11-19T02:46:22;98630.69;;;13.04;38.99
82256;BME280;74246;42.044;-91.642;2023-11-19T02:46:55;98627.50;;;13.35;41.73
82256;BME280;74246;42.044;-91.642;2023-11-19T02:47:32;98635.75;;;13.44;40.15
82256;BME280;74246;42.044;-91.642;2023-11-19T02:48:05;98620.66;;;13.17;40.08
82256;BME280;74246;42.044;-91.642;2023-11-19T02:48:38;98630.50;;;13.44;40.51
82256;BME280;74246;42.044;-91.642;2023-11-19T02:49:11;98631.91;;;13.52;40.60
82256;BME280;74246;42.044;-91.642;2023-11-19T02:49:43;98637.28;;;13.40;40.00
82256;BME280;74246;42.044;-91.642;2023-11-19T02:50:17;98629.97;;;13.08;40.95
82256;BME280;74246;42.044;-91.642;2023-11-19T02:50:50;98623.66;;;13.43;40.12
82256;BME280;74246;42.044;-91.642;2023-11-19T02:51:22;98631.72;;;13.36;40.73
82256;BME280;74246;42.044;-91.642;2023-11-19T02:51:55;98626.63;;;13.30;41.41
82256;BME280;74246;42.044;-91.642;2023-11-19T02:52:27;98630.66;;;13.37;40.93
82256;BME280;74246;42.044;-91.642;2023-11-19T02:53:00;98633.19;;;13.49;42.04
82256;BME280;74246;42.044;-91.642;2023-11-19T02:53:33;98625.81;;;13.46;42.11
82256;BME280;74246;42.044;-91.642;2023-11-19T02:54:05;98628.97;;;13.65;42.88
82256;BME280;74246;42.044;-91.642;2023-11-19T02:54:38;98624.97;;;13.63;39.42
82256;BME280;74246;42.044;-91.642;2023-11-19T02:55:10;98628.28;;;13.53;40.88